sensor_id;sensor_type;location;lat;lon;timestamp;temperature;humidity
69503;SHT31;56704;54.242;12.442;2022-09-11T00:00:28;13.99;89.57
69503;SHT31;56704;54.242;12.442;2022-09-11T00:02:55;14.00;89.48
69503;SHT31;56704;54.242;12.442;2022-09-11T00:05:21;14.05;89.42
69503;SHT31;56704;54.242;12.442;2022-09-11T00:07:50;14.10;89.44
69503;SHT31;56704;54.242;12.442;2022-09-11T00:10:17;14.17;89.30
69503;SHT31;56704;54.242;12.442;2022-09-11T00:12:44;14.21;89.45
69503;SHT31;56704;54.242;12.442;2022-09-11T00:15:11;14.29;89.22
69503;SHT31;56704;54.242;12.442;2022-09-11T00:17:37;14.36;88.98
69503;SHT31;56704;54.242;12.442;2022-09-11T00:20:04;14.38;88.90
69503;SHT31;56704;54.242;12.442;2022-09-11T00:22:31;14.41;89.03
69503;SHT31;56704;54.242;12.442;2022-09-11T00:24:57;14.42;88.72
69503;SHT31;56704;54.242;12.442;2022-09-11T00:27:24;14.45;88.77
69503;SHT31;56704;54.242;12.442;2022-09-11T00:29:52;14.47;88.61
69503;SHT31;56704;54.242;12.442;2022-09-11T00:32:19;14.47;88.61
69503;SHT31;56704;54.242;12.442;2022-09-11T00:34:46;14.47;88.45
69503;SHT31;56704;54.242;12.442;2022-09-11T00:37:12;14.44;88.42
69503;SHT31;56704;54.242;12.442;2022-09-11T00:39:39;14.36;88.34
69503;SHT31;56704;54.242;12.442;2022-09-11T00:42:05;14.33;88.34
69503;SHT31;56704;54.242;12.442;2022-09-11T00:45:00;14.24;88.37
69503;SHT31;56704;54.242;12.442;2022-09-11T00:47:28;14.14;88.41
69503;SHT31;56704;54.242;12.442;2022-09-11T00:50:02;14.12;88.45
69503;SHT31;56704;54.242;12.442;2022-09-11T00:52:33;14.06;88.57
69503;SHT31;56704;54.242;12.442;2022-09-11T00:55:06;14.02;88.68
69503;SHT31;56704;54.242;12.442;2022-09-11T00:57:37;13.95;88.69
69503;SHT31;56704;54.242;12.442;2022-09-11T01:00:11;13.91;88.77
69503;SHT31;56704;54.242;12.442;2022-09-11T01:02:39;13.90;88.82
69503;SHT31;56704;54.242;12.442;2022-09-11T01:05:08;13.85;88.85
69503;SHT31;56704;54.242;12.442;2022-09-11T01:07:35;13.85;89.06
69503;SHT31;56704;54.242;12.442;2022-09-11T01:10:03;13.83;89.12
69503;SHT31;56704;54.242;12.442;2022-09-11T01:12:37;13.79;89.23
69503;SHT31;56704;54.242;12.442;2022-09-11T01:15:08;13.76;89.33
69503;SHT31;56704;54.242;12.442;2022-09-11T01:17:45;13.69;89.38
69503;SHT31;56704;54.242;12.442;2022-09-11T01:20:24;13.63;89.41
69503;SHT31;56704;54.242;12.442;2022-09-11T01:26:00;13.54;89.64
69503;SHT31;56704;54.242;12.442;2022-09-11T01:28:35;13.48;89.72
69503;SHT31;56704;54.242;12.442;2022-09-11T01:31:07;13.49;89.92
69503;SHT31;56704;54.242;12.442;2022-09-11T01:33:40;13.45;90.05
69503;SHT31;56704;54.242;12.442;2022-09-11T01:36:12;13.47;90.20
69503;SHT31;56704;54.242;12.442;2022-09-11T01:38:45;13.44;90.15
69503;SHT31;56704;54.242;12.442;2022-09-11T01:41:16;13.41;90.25
69503;SHT31;56704;54.242;12.442;2022-09-11T01:43:49;13.38;90.22
69503;SHT31;56704;54.242;12.442;2022-09-11T01:46:20;13.35;90.18
69503;SHT31;56704;54.242;12.442;2022-09-11T01:48:51;13.34;90.16
69503;SHT31;56704;54.242;12.442;2022-09-11T01:51:22;13.34;90.17
69503;SHT31;56704;54.242;12.442;2022-09-11T01:53:51;13.31;90.30
69503;SHT31;56704;54.242;12.442;2022-09-11T01:56:22;13.32;90.37
69503;SHT31;56704;54.242;12.442;2022-09-11T01:58:55;13.35;90.43
69503;SHT31;56704;54.242;12.442;2022-09-11T02:01:26;13.32;90.38
69503;SHT31;56704;54.242;12.442;2022-09-11T02:03:57;13.30;90.28
69503;SHT31;56704;54.242;12.442;2022-09-11T02:06:30;13.27;90.23
69503;SHT31;56704;54.242;12.442;2022-09-11T02:08:59;13.24;90.27
69503;SHT31;56704;54.242;12.442;2022-09-11T02:11:31;13.24;90.35
69503;SHT31;56704;54.242;12.442;2022-09-11T02:14:04;13.25;90.39
69503;SHT31;56704;54.242;12.442;2022-09-11T02:16:39;13.24;90.36
69503;SHT31;56704;54.242;12.442;2022-09-11T02:19:10;13.27;90.30
69503;SHT31;56704;54.242;12.442;2022-09-11T02:21:37;13.27;90.31
69503;SHT31;56704;54.242;12.442;2022-09-11T02:24:05;13.25;90.25
69503;SHT31;56704;54.242;12.442;2022-09-11T02:26:34;13.24;90.15
69503;SHT31;56704;54.242;12.442;2022-09-11T02:29:04;13.21;90.31
69503;SHT31;56704;54.242;12.442;2022-09-11T02:31:32;13.21;90.31
69503;SHT31;56704;54.242;12.442;2022-09-11T02:33:59;13.18;90.30
69503;SHT31;56704;54.242;12.442;2022-09-11T02:36:41;13.17;90.30
69503;SHT31;56704;54.242;12.442;2022-09-11T02:39:23;13.17;90.31
69503;SHT31;56704;54.242;12.442;2022-09-11T02:42:10;13.14;90.34
69503;SHT31;56704;54.242;12.442;2022-09-11T02:44:44;13.15;90.50
69503;SHT31;56704;54.242;12.442;2022-09-11T02:47:18;13.18;90.58
69503;SHT31;56704;54.242;12.442;2022-09-11T02:49:57;13.21;90.60
69503;SHT31;56704;54.242;12.442;2022-09-11T02:52:35;13.22;90.63
69503;SHT31;56704;54.242;12.442;2022-09-11T02:55:09;13.22;90.50
69503;SHT31;56704;54.242;12.442;2022-09-11T02:57:39;13.15;90.38
69503;SHT31;56704;54.242;12.442;2022-09-11T03:00:10;13.12;90.37
69503;SHT31;56704;54.242;12.442;2022-09-11T03:02:39;13.10;90.40
69503;SHT31;56704;54.242;12.442;2022-09-11T03:05:07;13.01;90.35
69503;SHT31;56704;54.242;12.442;2022-09-11T03:07:34;12.96;90.31
69503;SHT31;56704;54.242;12.442;2022-09-11T03:10:00;12.90;90.28
69503;SHT31;56704;54.242;12.442;2022-09-11T03:12:27;12.87;90.26
69503;SHT31;56704;54.242;12.442;2022-09-11T03:14:53;12.80;90.24
69503;SHT31;56704;54.242;12.442;2022-09-11T03:17:22;12.72;90.24
69503;SHT31;56704;54.242;12.442;2022-09-11T03:19:49;12.64;90.19
69503;SHT31;56704;54.242;12.442;2022-09-11T03:22:16;12.56;90.29
69503;SHT31;56704;54.242;12.442;2022-09-11T03:24:42;12.53;90.43
69503;SHT31;56704;54.242;12.442;2022-09-11T03:27:09;12.52;90.49
69503;SHT31;56704;54.242;12.442;2022-09-11T03:29:35;12.46;90.56
69503;SHT31;56704;54.242;12.442;2022-09-11T03:32:02;12.45;90.61
69503;SHT31;56704;54.242;12.442;2022-09-11T03:34:30;12.46;90.71
69503;SHT31;56704;54.242;12.442;2022-09-11T03:36:57;12.52;90.85
69503;SHT31;56704;54.242;12.442;2022-09-11T03:39:24;12.60;90.94
69503;SHT31;56704;54.242;12.442;2022-09-11T03:41:50;12.66;91.02
69503;SHT31;56704;54.242;12.442;2022-09-11T03:44:18;12.75;90.94
69503;SHT31;56704;54.242;12.442;2022-09-11T03:46:45;12.81;90.86
69503;SHT31;56704;54.242;12.442;2022-09-11T03:49:12;12.86;90.85
69503;SHT31;56704;54.242;12.442;2022-09-11T03:51:40;12.90;90.88
69503;SHT31;56704;54.242;12.442;2022-09-11T03:54:07;12.97;90.90
69503;SHT31;56704;54.242;12.442;2022-09-11T03:56:34;13.06;90.81
69503;SHT31;56704;54.242;12.442;2022-09-11T03:59:01;13.12;90.80
69503;SHT31;56704;54.242;12.442;2022-09-11T04:01:27;13.17;90.70
69503;SHT31;56704;54.242;12.442;2022-09-11T04:03:54;13.22;90.59
69503;SHT31;56704;54.242;12.442;2022-09-11T04:06:21;13.28;90.51
69503;SHT31;56704;54.242;12.442;2022-09-11T04:08:49;13.31;90.40
69503;SHT31;56704;54.242;12.442;2022-09-11T04:11:15;13.35;90.26
69503;SHT31;56704;54.242;12.442;2022-09-11T04:13:44;13.41;90.17
69503;SHT31;56704;54.242;12.442;2022-09-11T04:16:13;13.42;90.01
69503;SHT31;56704;54.242;12.442;2022-09-11T04:18:40;13.44;90.02
69503;SHT31;56704;54.242;12.442;2022-09-11T04:21:09;13.47;90.04
69503;SHT31;56704;54.242;12.442;2022-09-11T04:23:36;13.47;89.94
69503;SHT31;56704;54.242;12.442;2022-09-11T04:26:12;13.45;89.87
69503;SHT31;56704;54.242;12.442;2022-09-11T04:28:40;13.45;89.98
69503;SHT31;56704;54.242;12.442;2022-09-11T04:31:07;13.48;90.10
69503;SHT31;56704;54.242;12.442;2022-09-11T04:33:33;13.48;89.94
69503;SHT31;56704;54.242;12.442;2022-09-11T04:36:03;13.47;89.86
69503;SHT31;56704;54.242;12.442;2022-09-11T04:38:30;13.51;89.89
69503;SHT31;56704;54.242;12.442;2022-09-11T04:40:59;13.52;89.93
69503;SHT31;56704;54.242;12.442;2022-09-11T04:43:27;13.55;90.12
69503;SHT31;56704;54.242;12.442;2022-09-11T04:45:59;13.57;90.06
69503;SHT31;56704;54.242;12.442;2022-09-11T04:48:25;13.61;90.07
69503;SHT31;56704;54.242;12.442;2022-09-11T04:51:00;13.66;90.02
69503;SHT31;56704;54.242;12.442;2022-09-11T04:53:27;13.70;89.89
69503;SHT31;56704;54.242;12.442;2022-09-11T04:56:00;13.76;90.06
69503;SHT31;56704;54.242;12.442;2022-09-11T04:58:29;13.79;89.88
69503;SHT31;56704;54.242;12.442;2022-09-11T05:00:55;13.80;90.01
69503;SHT31;56704;54.242;12.442;2022-09-11T05:03:22;13.85;89.97
69503;SHT31;56704;54.242;12.442;2022-09-11T05:05:49;13.87;89.82
69503;SHT31;56704;54.242;12.442;2022-09-11T05:08:15;13.93;89.92
69503;SHT31;56704;54.242;12.442;2022-09-11T05:10:43;13.99;89.82
69503;SHT31;56704;54.242;12.442;2022-09-11T05:13:10;14.06;90.01
69503;SHT31;56704;54.242;12.442;2022-09-11T05:15:38;14.13;89.90
69503;SHT31;56704;54.242;12.442;2022-09-11T05:18:04;14.23;89.89
69503;SHT31;56704;54.242;12.442;2022-09-11T05:20:31;14.29;89.94
69503;SHT31;56704;54.242;12.442;2022-09-11T05:22:57;14.37;89.89
69503;SHT31;56704;54.242;12.442;2022-09-11T05:25:24;14.44;89.77
69503;SHT31;56704;54.242;12.442;2022-09-11T05:27:51;14.50;89.72
69503;SHT31;56704;54.242;12.442;2022-09-11T05:30:18;14.60;90.11
69503;SHT31;56704;54.242;12.442;2022-09-11T05:32:46;14.79;90.87
69503;SHT31;56704;54.242;12.442;2022-09-11T05:35:12;14.93;90.74
69503;SHT31;56704;54.242;12.442;2022-09-11T05:37:39;15.05;90.76
69503;SHT31;56704;54.242;12.442;2022-09-11T05:40:06;15.12;90.69
69503;SHT31;56704;54.242;12.442;2022-09-11T05:42:33;15.25;90.76
69503;SHT31;56704;54.242;12.442;2022-09-11T05:44:59;15.35;90.73
69503;SHT31;56704;54.242;12.442;2022-09-11T05:47:26;15.44;90.68
69503;SHT31;56704;54.242;12.442;2022-09-11T05:49:54;15.50;90.67
69503;SHT31;56704;54.242;12.442;2022-09-11T05:52:20;15.56;90.63
69503;SHT31;56704;54.242;12.442;2022-09-11T05:54:49;15.59;90.50
69503;SHT31;56704;54.242;12.442;2022-09-11T05:57:15;15.61;90.37
69503;SHT31;56704;54.242;12.442;2022-09-11T05:59:42;15.64;90.28
69503;SHT31;56704;54.242;12.442;2022-09-11T06:02:09;15.68;90.19
69503;SHT31;56704;54.242;12.442;2022-09-11T06:04:36;15.71;90.16
69503;SHT31;56704;54.242;12.442;2022-09-11T06:07:04;15.81;90.20
69503;SHT31;56704;54.242;12.442;2022-09-11T06:09:30;15.86;90.19
69503;SHT31;56704;54.242;12.442;2022-09-11T06:11:57;15.87;90.17
69503;SHT31;56704;54.242;12.442;2022-09-11T06:14:23;15.90;90.16
69503;SHT31;56704;54.242;12.442;2022-09-11T06:16:49;15.94;90.20
69503;SHT31;56704;54.242;12.442;2022-09-11T06:19:18;15.96;90.03
69503;SHT31;56704;54.242;12.442;2022-09-11T06:21:44;16.00;89.83
69503;SHT31;56704;54.242;12.442;2022-09-11T06:24:12;16.05;89.93
69503;SHT31;56704;54.242;12.442;2022-09-11T06:26:39;16.05;89.75
69503;SHT31;56704;54.242;12.442;2022-09-11T06:29:05;16.08;89.63
69503;SHT31;56704;54.242;12.442;2022-09-11T06:31:32;16.05;89.57
69503;SHT31;56704;54.242;12.442;2022-09-11T06:33:59;16.04;89.43
69503;SHT31;56704;54.242;12.442;2022-09-11T06:36:25;16.02;89.39
69503;SHT31;56704;54.242;12.442;2022-09-11T06:38:55;15.93;89.12
69503;SHT31;56704;54.242;12.442;2022-09-11T06:41:24;15.84;89.15
69503;SHT31;56704;54.242;12.442;2022-09-11T06:43:51;15.81;89.27
69503;SHT31;56704;54.242;12.442;2022-09-11T06:46:19;15.81;89.30
69503;SHT31;56704;54.242;12.442;2022-09-11T06:48:47;15.78;89.19
69503;SHT31;56704;54.242;12.442;2022-09-11T06:51:16;15.74;89.16
69503;SHT31;56704;54.242;12.442;2022-09-11T06:53:43;15.74;89.24
69503;SHT31;56704;54.242;12.442;2022-09-11T06:56:13;15.74;89.14
69503;SHT31;56704;54.242;12.442;2022-09-11T06:58:41;15.74;89.17
69503;SHT31;56704;54.242;12.442;2022-09-11T07:01:11;15.78;89.17
69503;SHT31;56704;54.242;12.442;2022-09-11T07:03:41;15.78;88.92
69503;SHT31;56704;54.242;12.442;2022-09-11T07:06:09;15.78;88.78
69503;SHT31;56704;54.242;12.442;2022-09-11T07:08:35;15.80;88.74
69503;SHT31;56704;54.242;12.442;2022-09-11T07:11:03;15.81;88.53
69503;SHT31;56704;54.242;12.442;2022-09-11T07:13:30;15.83;88.45
69503;SHT31;56704;54.242;12.442;2022-09-11T07:16:00;15.84;88.43
69503;SHT31;56704;54.242;12.442;2022-09-11T07:18:31;15.88;88.47
69503;SHT31;56704;54.242;12.442;2022-09-11T07:20:58;15.97;88.42
69503;SHT31;56704;54.242;12.442;2022-09-11T07:23:25;16.09;88.24
69503;SHT31;56704;54.242;12.442;2022-09-11T07:25:51;16.19;88.21
69503;SHT31;56704;54.242;12.442;2022-09-11T07:28:18;16.26;87.98
69503;SHT31;56704;54.242;12.442;2022-09-11T07:30:45;16.32;87.46
69503;SHT31;56704;54.242;12.442;2022-09-11T07:33:14;16.58;87.43
69503;SHT31;56704;54.242;12.442;2022-09-11T07:35:41;16.83;87.14
69503;SHT31;56704;54.242;12.442;2022-09-11T07:38:07;17.03;86.33
69503;SHT31;56704;54.242;12.442;2022-09-11T07:40:34;17.14;84.86
69503;SHT31;56704;54.242;12.442;2022-09-11T07:43:01;17.21;83.84
69503;SHT31;56704;54.242;12.442;2022-09-11T07:45:28;17.49;84.34
69503;SHT31;56704;54.242;12.442;2022-09-11T07:47:58;17.71;83.44
69503;SHT31;56704;54.242;12.442;2022-09-11T07:50:27;17.95;83.51
69503;SHT31;56704;54.242;12.442;2022-09-11T07:52:53;18.32;82.86
69503;SHT31;56704;54.242;12.442;2022-09-11T07:55:20;18.56;81.74
69503;SHT31;56704;54.242;12.442;2022-09-11T07:57:46;18.91;80.56
69503;SHT31;56704;54.242;12.442;2022-09-11T08:00:14;18.79;78.53
69503;SHT31;56704;54.242;12.442;2022-09-11T08:02:41;18.60;79.08
69503;SHT31;56704;54.242;12.442;2022-09-11T08:05:08;18.47;79.07
69503;SHT31;56704;54.242;12.442;2022-09-11T08:07:36;18.29;79.32
69503;SHT31;56704;54.242;12.442;2022-09-11T08:10:03;18.06;79.76
69503;SHT31;56704;54.242;12.442;2022-09-11T08:12:30;17.99;79.99
69503;SHT31;56704;54.242;12.442;2022-09-11T08:14:58;17.78;80.58
69503;SHT31;56704;54.242;12.442;2022-09-11T08:17:25;17.67;80.53
69503;SHT31;56704;54.242;12.442;2022-09-11T08:19:51;17.59;80.78
69503;SHT31;56704;54.242;12.442;2022-09-11T08:22:18;17.52;81.22
69503;SHT31;56704;54.242;12.442;2022-09-11T08:24:46;17.51;80.74
69503;SHT31;56704;54.242;12.442;2022-09-11T08:27:12;17.58;81.09
69503;SHT31;56704;54.242;12.442;2022-09-11T08:29:39;17.69;80.74
69503;SHT31;56704;54.242;12.442;2022-09-11T08:32:05;17.90;80.05
69503;SHT31;56704;54.242;12.442;2022-09-11T08:34:32;18.10;79.91
69503;SHT31;56704;54.242;12.442;2022-09-11T08:36:58;18.32;79.37
69503;SHT31;56704;54.242;12.442;2022-09-11T08:39:25;18.54;79.87
69503;SHT31;56704;54.242;12.442;2022-09-11T08:41:54;18.87;79.23
69503;SHT31;56704;54.242;12.442;2022-09-11T08:44:26;19.01;78.47
69503;SHT31;56704;54.242;12.442;2022-09-11T08:46:56;19.25;78.15
69503;SHT31;56704;54.242;12.442;2022-09-11T08:49:26;19.32;75.85
69503;SHT31;56704;54.242;12.442;2022-09-11T08:51:55;19.38;75.66
69503;SHT31;56704;54.242;12.442;2022-09-11T08:54:26;19.59;75.81
69503;SHT31;56704;54.242;12.442;2022-09-11T08:57:05;19.71;75.32
69503;SHT31;56704;54.242;12.442;2022-09-11T08:59:47;19.77;74.52
69503;SHT31;56704;54.242;12.442;2022-09-11T09:02:31;19.74;74.20
69503;SHT31;56704;54.242;12.442;2022-09-11T09:05:14;19.69;74.18
69503;SHT31;56704;54.242;12.442;2022-09-11T09:07:53;19.57;73.98
69503;SHT31;56704;54.242;12.442;2022-09-11T09:10:35;19.55;74.35
69503;SHT31;56704;54.242;12.442;2022-09-11T09:13:21;19.80;74.66
69503;SHT31;56704;54.242;12.442;2022-09-11T09:15:53;20.03;73.55
69503;SHT31;56704;54.242;12.442;2022-09-11T09:18:28;20.13;73.37
69503;SHT31;56704;54.242;12.442;2022-09-11T09:20:59;20.18;73.18
69503;SHT31;56704;54.242;12.442;2022-09-11T09:23:31;20.46;71.62
69503;SHT31;56704;54.242;12.442;2022-09-11T09:26:00;20.59;71.86
69503;SHT31;56704;54.242;12.442;2022-09-11T09:28:32;20.69;71.86
69503;SHT31;56704;54.242;12.442;2022-09-11T09:31:05;20.68;71.62
69503;SHT31;56704;54.242;12.442;2022-09-11T09:33:34;20.65;72.01
69503;SHT31;56704;54.242;12.442;2022-09-11T09:36:12;20.39;71.30
69503;SHT31;56704;54.242;12.442;2022-09-11T09:38:41;20.45;71.76
69503;SHT31;56704;54.242;12.442;2022-09-11T09:41:41;20.29;71.58
69503;SHT31;56704;54.242;12.442;2022-09-11T09:44:19;20.31;72.01
69503;SHT31;56704;54.242;12.442;2022-09-11T09:46:51;20.24;72.30
69503;SHT31;56704;54.242;12.442;2022-09-11T09:49:21;20.21;71.47
69503;SHT31;56704;54.242;12.442;2022-09-11T09:51:49;20.10;72.61
69503;SHT31;56704;54.242;12.442;2022-09-11T09:54:18;20.00;72.74
69503;SHT31;56704;54.242;12.442;2022-09-11T09:56:54;19.74;72.16
69503;SHT31;56704;54.242;12.442;2022-09-11T09:59:25;19.32;73.57
69503;SHT31;56704;54.242;12.442;2022-09-11T10:01:55;19.14;73.76
69503;SHT31;56704;54.242;12.442;2022-09-11T10:04:23;18.97;74.39
69503;SHT31;56704;54.242;12.442;2022-09-11T10:06:53;19.02;74.75
69503;SHT31;56704;54.242;12.442;2022-09-11T10:09:25;19.04;74.80
69503;SHT31;56704;54.242;12.442;2022-09-11T10:11:58;19.18;74.75
69503;SHT31;56704;54.242;12.442;2022-09-11T10:14:29;19.14;75.06
69503;SHT31;56704;54.242;12.442;2022-09-11T10:16:57;19.29;74.14
69503;SHT31;56704;54.242;12.442;2022-09-11T10:19:36;19.28;73.66
69503;SHT31;56704;54.242;12.442;2022-09-11T10:22:28;19.15;73.84
69503;SHT31;56704;54.242;12.442;2022-09-11T10:25:07;19.07;74.13
69503;SHT31;56704;54.242;12.442;2022-09-11T10:27:41;18.92;73.79
69503;SHT31;56704;54.242;12.442;2022-09-11T10:30:28;18.79;74.89
69503;SHT31;56704;54.242;12.442;2022-09-11T10:32:59;18.81;74.45
69503;SHT31;56704;54.242;12.442;2022-09-11T10:35:28;18.94;74.74
69503;SHT31;56704;54.242;12.442;2022-09-11T10:38:12;19.15;74.08
69503;SHT31;56704;54.242;12.442;2022-09-11T10:40:51;19.15;73.53
69503;SHT31;56704;54.242;12.442;2022-09-11T10:43:21;19.22;73.14
69503;SHT31;56704;54.242;12.442;2022-09-11T10:46:03;19.40;73.83
69503;SHT31;56704;54.242;12.442;2022-09-11T10:48:30;19.70;72.78
69503;SHT31;56704;54.242;12.442;2022-09-11T10:51:04;19.87;73.00
69503;SHT31;56704;54.242;12.442;2022-09-11T10:53:38;20.27;71.51
69503;SHT31;56704;54.242;12.442;2022-09-11T10:56:12;20.51;70.89
69503;SHT31;56704;54.242;12.442;2022-09-11T10:58:41;20.61;70.71
69503;SHT31;56704;54.242;12.442;2022-09-11T11:01:12;20.56;71.06
69503;SHT31;56704;54.242;12.442;2022-09-11T11:03:38;20.46;70.51
69503;SHT31;56704;54.242;12.442;2022-09-11T11:06:14;20.49;70.45
69503;SHT31;56704;54.242;12.442;2022-09-11T11:08:58;20.46;70.42
69503;SHT31;56704;54.242;12.442;2022-09-11T11:11:39;20.35;70.60
69503;SHT31;56704;54.242;12.442;2022-09-11T11:14:24;20.37;70.46
69503;SHT31;56704;54.242;12.442;2022-09-11T11:17:03;20.41;71.15
69503;SHT31;56704;54.242;12.442;2022-09-11T11:19:46;20.71;70.47
69503;SHT31;56704;54.242;12.442;2022-09-11T11:22:24;20.85;69.56
69503;SHT31;56704;54.242;12.442;2022-09-11T11:25:05;21.03;69.96
69503;SHT31;56704;54.242;12.442;2022-09-11T11:27:50;20.95;68.87
69503;SHT31;56704;54.242;12.442;2022-09-11T11:30:20;21.07;68.93
69503;SHT31;56704;54.242;12.442;2022-09-11T11:33:04;21.16;67.60
69503;SHT31;56704;54.242;12.442;2022-09-11T11:35:38;21.14;67.61
69503;SHT31;56704;54.242;12.442;2022-09-11T11:38:10;21.36;67.82
69503;SHT31;56704;54.242;12.442;2022-09-11T11:40:42;21.55;67.59
69503;SHT31;56704;54.242;12.442;2022-09-11T11:43:12;21.62;66.65
69503;SHT31;56704;54.242;12.442;2022-09-11T11:45:43;21.95;67.17
69503;SHT31;56704;54.242;12.442;2022-09-11T11:48:17;21.75;65.64
69503;SHT31;56704;54.242;12.442;2022-09-11T11:50:48;21.74;66.08
69503;SHT31;56704;54.242;12.442;2022-09-11T11:53:20;21.71;65.31
69503;SHT31;56704;54.242;12.442;2022-09-11T11:56:01;21.82;66.29
69503;SHT31;56704;54.242;12.442;2022-09-11T11:58:37;22.04;65.73
69503;SHT31;56704;54.242;12.442;2022-09-11T12:01:11;22.12;64.19
69503;SHT31;56704;54.242;12.442;2022-09-11T12:03:45;22.09;64.78
69503;SHT31;56704;54.242;12.442;2022-09-11T12:06:12;22.12;63.92
69503;SHT31;56704;54.242;12.442;2022-09-11T12:08:41;21.99;65.13
69503;SHT31;56704;54.242;12.442;2022-09-11T12:11:10;22.13;64.18
69503;SHT31;56704;54.242;12.442;2022-09-11T12:13:41;22.22;63.98
69503;SHT31;56704;54.242;12.442;2022-09-11T12:16:12;22.32;63.35
69503;SHT31;56704;54.242;12.442;2022-09-11T12:19:00;22.59;61.95
69503;SHT31;56704;54.242;12.442;2022-09-11T12:22:03;22.70;61.07
69503;SHT31;56704;54.242;12.442;2022-09-11T12:24:48;22.68;62.27
69503;SHT31;56704;54.242;12.442;2022-09-11T12:27:52;22.66;60.62
69503;SHT31;56704;54.242;12.442;2022-09-11T12:30:25;22.45;61.30
69503;SHT31;56704;54.242;12.442;2022-09-11T12:32:53;22.19;62.22
69503;SHT31;56704;54.242;12.442;2022-09-11T12:35:27;22.20;63.11
69503;SHT31;56704;54.242;12.442;2022-09-11T12:37:59;22.16;62.04
69503;SHT31;56704;54.242;12.442;2022-09-11T12:40:32;22.06;62.74
69503;SHT31;56704;54.242;12.442;2022-09-11T12:43:26;22.20;62.89
69503;SHT31;56704;54.242;12.442;2022-09-11T12:45:53;22.33;62.74
69503;SHT31;56704;54.242;12.442;2022-09-11T12:48:22;22.40;62.35
69503;SHT31;56704;54.242;12.442;2022-09-11T12:50:53;22.42;62.71
69503;SHT31;56704;54.242;12.442;2022-09-11T12:53:23;22.46;62.24
69503;SHT31;56704;54.242;12.442;2022-09-11T12:55:57;22.49;62.30
69503;SHT31;56704;54.242;12.442;2022-09-11T12:58:31;22.36;61.78
69503;SHT31;56704;54.242;12.442;2022-09-11T13:03:55;22.76;61.12
69503;SHT31;56704;54.242;12.442;2022-09-11T13:06:34;22.86;60.77
69503;SHT31;56704;54.242;12.442;2022-09-11T13:09:01;23.01;59.91
69503;SHT31;56704;54.242;12.442;2022-09-11T13:11:36;22.97;60.05
69503;SHT31;56704;54.242;12.442;2022-09-11T13:14:04;23.04;58.76
69503;SHT31;56704;54.242;12.442;2022-09-11T13:16:32;22.93;59.73
69503;SHT31;56704;54.242;12.442;2022-09-11T13:19:02;22.88;59.97
69503;SHT31;56704;54.242;12.442;2022-09-11T13:21:39;23.03;61.08
69503;SHT31;56704;54.242;12.442;2022-09-11T13:24:21;23.05;58.94
69503;SHT31;56704;54.242;12.442;2022-09-11T13:26:48;23.05;59.54
69503;SHT31;56704;54.242;12.442;2022-09-11T13:29:20;23.21;59.48
69503;SHT31;56704;54.242;12.442;2022-09-11T13:31:47;23.05;59.16
69503;SHT31;56704;54.242;12.442;2022-09-11T13:34:16;23.14;59.86
69503;SHT31;56704;54.242;12.442;2022-09-11T13:36:45;23.45;59.64
69503;SHT31;56704;54.242;12.442;2022-09-11T13:39:15;23.46;57.98
69503;SHT31;56704;54.242;12.442;2022-09-11T13:41:45;23.59;59.07
69503;SHT31;56704;54.242;12.442;2022-09-11T13:44:35;23.70;58.67
69503;SHT31;56704;54.242;12.442;2022-09-11T13:47:15;23.70;57.74
69503;SHT31;56704;54.242;12.442;2022-09-11T13:49:42;23.62;57.74
69503;SHT31;56704;54.242;12.442;2022-09-11T13:52:11;23.03;58.90
69503;SHT31;56704;54.242;12.442;2022-09-11T13:54:42;22.68;60.88
69503;SHT31;56704;54.242;12.442;2022-09-11T13:57:15;22.95;61.04
69503;SHT31;56704;54.242;12.442;2022-09-11T13:59:44;23.19;60.74
69503;SHT31;56704;54.242;12.442;2022-09-11T14:02:20;22.90;60.81
69503;SHT31;56704;54.242;12.442;2022-09-11T14:04:47;22.45;60.90
69503;SHT31;56704;54.242;12.442;2022-09-11T14:07:19;21.95;62.56
69503;SHT31;56704;54.242;12.442;2022-09-11T14:09:49;21.77;62.98
69503;SHT31;56704;54.242;12.442;2022-09-11T14:12:17;21.47;64.46
69503;SHT31;56704;54.242;12.442;2022-09-11T14:14:48;21.22;65.31
69503;SHT31;56704;54.242;12.442;2022-09-11T14:17:16;21.08;65.68
69503;SHT31;56704;54.242;12.442;2022-09-11T14:19:44;20.87;65.74
69503;SHT31;56704;54.242;12.442;2022-09-11T14:22:15;20.76;66.39
69503;SHT31;56704;54.242;12.442;2022-09-11T14:24:53;20.58;66.58
69503;SHT31;56704;54.242;12.442;2022-09-11T14:27:36;20.48;67.06
69503;SHT31;56704;54.242;12.442;2022-09-11T14:30:30;20.31;67.70
69503;SHT31;56704;54.242;12.442;2022-09-11T14:33:22;20.04;67.91
69503;SHT31;56704;54.242;12.442;2022-09-11T14:35:51;19.94;68.21
69503;SHT31;56704;54.242;12.442;2022-09-11T14:38:20;19.93;68.58
69503;SHT31;56704;54.242;12.442;2022-09-11T14:40:52;19.83;68.62
69503;SHT31;56704;54.242;12.442;2022-09-11T14:43:24;19.71;68.75
69503;SHT31;56704;54.242;12.442;2022-09-11T14:45:52;19.63;69.43
69503;SHT31;56704;54.242;12.442;2022-09-11T14:48:19;19.63;69.60
69503;SHT31;56704;54.242;12.442;2022-09-11T14:50:46;19.55;69.27
69503;SHT31;56704;54.242;12.442;2022-09-11T14:53:17;19.45;68.81
69503;SHT31;56704;54.242;12.442;2022-09-11T14:55:44;19.36;69.15
69503;SHT31;56704;54.242;12.442;2022-09-11T14:58:12;19.33;69.23
69503;SHT31;56704;54.242;12.442;2022-09-11T15:00:39;19.29;68.94
69503;SHT31;56704;54.242;12.442;2022-09-11T15:03:06;19.04;69.36
69503;SHT31;56704;54.242;12.442;2022-09-11T15:05:33;18.98;69.92
69503;SHT31;56704;54.242;12.442;2022-09-11T15:07:59;18.83;70.60
69503;SHT31;56704;54.242;12.442;2022-09-11T15:10:28;18.71;70.95
69503;SHT31;56704;54.242;12.442;2022-09-11T15:12:55;18.63;71.11
69503;SHT31;56704;54.242;12.442;2022-09-11T15:15:24;18.63;71.31
69503;SHT31;56704;54.242;12.442;2022-09-11T15:17:51;18.58;70.83
69503;SHT31;56704;54.242;12.442;2022-09-11T15:20:18;18.57;70.83
69503;SHT31;56704;54.242;12.442;2022-09-11T15:22:45;18.48;70.92
69503;SHT31;56704;54.242;12.442;2022-09-11T15:25:11;18.41;71.42
69503;SHT31;56704;54.242;12.442;2022-09-11T15:27:38;18.50;71.09
69503;SHT31;56704;54.242;12.442;2022-09-11T15:30:06;18.47;70.77
69503;SHT31;56704;54.242;12.442;2022-09-11T15:32:34;18.44;70.32
69503;SHT31;56704;54.242;12.442;2022-09-11T15:35:01;18.48;70.80
69503;SHT31;56704;54.242;12.442;2022-09-11T15:37:27;18.50;71.24
69503;SHT31;56704;54.242;12.442;2022-09-11T15:39:54;18.43;71.53
69503;SHT31;56704;54.242;12.442;2022-09-11T15:42:20;18.40;71.92